sensor_id;sensor_type;location;lat;lon;timestamp;pressure;altitude;pressure_sealevel;temperature;humidity
20620;BME280;10469;42.720;23.252;2023-03-20T00:00:25;95202.25;;;6.14;100.00
20620;BME280;10469;42.720;23.252;2023-03-20T00:02:53;95195.31;;;6.26;100.00
20620;BME280;10469;42.720;23.252;2023-03-20T00:05:21;95188.31;;;6.25;100.00
20620;BME280;10469;42.720;23.252;2023-03-20T00:07:48;95185.25;;;6.28;100.00
20620;BME280;10469;42.720;23.252;2023-03-20T00:10:15;95182.78;;;6.20;100.00
20620;BME280;10469;42.720;23.252;2023-03-20T00:12:41;95194.09;;;6.36;100.00
20620;BME280;10469;42.720;23.252;2023-03-20T00:17:45;95174.94;;;5.99;100.00
20620;BME280;10469;42.720;23.252;2023-03-20T00:20:14;95194.47;;;6.19;100.00
20620;BME280;10469;42.720;23.252;2023-03-20T00:22:40;95196.50;;;6.17;100.00
20620;BME280;10469;42.720;23.252;2023-03-20T00:25:08;95188.75;;;6.22;100.00
20620;BME280;10469;42.720;23.252;2023-03-20T00:27:36;95176.19;;;5.96;100.00
20620;BME280;10469;42.720;23.252;2023-03-20T00:30:02;95180.88;;;5.94;100.00
20620;BME280;10469;42.720;23.252;2023-03-20T00:32:28;95184.41;;;6.08;100.00
20620;BME280;10469;42.720;23.252;2023-03-20T00:34:54;95182.53;;;6.02;100.00
20620;BME280;10469;42.720;23.252;2023-03-20T00:37:20;95181.19;;;5.71;100.00
20620;BME280;10469;42.720;23.252;2023-03-20T00:39:45;95187.06;;;5.60;100.00
20620;BME280;10469;42.720;23.252;2023-03-20T00:42:19;95191.13;;;5.56;100.00
20620;BME280;10469;42.720;23.252;2023-03-20T00:44:52;95188.09;;;5.59;100.00
20620;BME280;10469;42.720;23.252;2023-03-20T00:47:20;95188.47;;;5.56;100.00
20620;BME280;10469;42.720;23.252;2023-03-20T00:49:49;95188.63;;;5.48;100.00
20620;BME280;10469;42.720;23.252;2023-03-20T00:52:20;95170.66;;;5.50;100.00
20620;BME280;10469;42.720;23.252;2023-03-20T00:54:45;95166.75;;;5.46;100.00
20620;BME280;10469;42.720;23.252;2023-03-20T00:57:15;95168.00;;;5.57;100.00
20620;BME280;10469;42.720;23.252;2023-03-20T00:59:52;95180.00;;;5.39;100.00
20620;BME280;10469;42.720;23.252;2023-03-20T01:02:20;95166.34;;;5.08;100.00
20620;BME280;10469;42.720;23.252;2023-03-20T01:04:47;95166.53;;;5.06;100.00
20620;BME280;10469;42.720;23.252;2023-03-20T01:07:14;95178.56;;;5.37;100.00
20620;BME280;10469;42.720;23.252;2023-03-20T01:09:40;95167.88;;;5.23;100.00
20620;BME280;10469;42.720;23.252;2023-03-20T01:12:07;95145.28;;;5.06;100.00
20620;BME280;10469;42.720;23.252;2023-03-20T01:14:35;95154.44;;;4.97;100.00
20620;BME280;10469;42.720;23.252;2023-03-20T01:17:00;95166.56;;;5.13;100.00
20620;BME280;10469;42.720;23.252;2023-03-20T01:19:26;95140.91;;;4.64;100.00
20620;BME280;10469;42.720;23.252;2023-03-20T01:21:52;95130.44;;;4.84;100.00
20620;BME280;10469;42.720;23.252;2023-03-20T01:24:17;95162.06;;;5.13;100.00
20620;BME280;10469;42.720;23.252;2023-03-20T01:26:44;95156.28;;;5.03;100.00
20620;BME280;10469;42.720;23.252;2023-03-20T01:29:22;95149.94;;;5.04;100.00
20620;BME280;10469;42.720;23.252;2023-03-20T01:31:49;95143.47;;;5.13;100.00
20620;BME280;10469;42.720;23.252;2023-03-20T01:34:15;95144.38;;;5.34;100.00
20620;BME280;10469;42.720;23.252;2023-03-20T01:36:44;95152.69;;;5.17;100.00
20620;BME280;10469;42.720;23.252;2023-03-20T01:39:12;95159.72;;;5.32;100.00
20620;BME280;10469;42.720;23.252;2023-03-20T01:41:38;95156.66;;;5.35;100.00
20620;BME280;10469;42.720;23.252;2023-03-20T01:44:36;95160.31;;;5.27;100.00
20620;BME280;10469;42.720;23.252;2023-03-20T01:47:04;95158.66;;;4.91;100.00
20620;BME280;10469;42.720;23.252;2023-03-20T01:52:33;95168.44;;;4.84;100.00
20620;BME280;10469;42.720;23.252;2023-03-20T01:54:59;95174.84;;;4.68;100.00
20620;BME280;10469;42.720;23.252;2023-03-20T01:57:25;95164.25;;;4.47;100.00
20620;BME280;10469;42.720;23.252;2023-03-20T01:59:54;95165.31;;;4.52;100.00
20620;BME280;10469;42.720;23.252;2023-03-20T02:02:28;95158.00;;;4.55;100.00
20620;BME280;10469;42.720;23.252;2023-03-20T02:04:58;95164.38;;;4.60;100.00
20620;BME280;10469;42.720;23.252;2023-03-20T02:07:25;95156.91;;;4.49;100.00
20620;BME280;10469;42.720;23.252;2023-03-20T02:09:51;95154.94;;;4.58;100.00
20620;BME280;10469;42.720;23.252;2023-03-20T02:12:18;95154.63;;;4.67;100.00
20620;BME280;10469;42.720;23.252;2023-03-20T02:14:45;95152.72;;;4.61;100.00
20620;BME280;10469;42.720;23.252;2023-03-20T02:17:12;95162.91;;;4.58;100.00
20620;BME280;10469;42.720;23.252;2023-03-20T02:22:44;95175.47;;;4.42;100.00
20620;BME280;10469;42.720;23.252;2023-03-20T02:39:30;95163.75;;;4.58;100.00
20620;BME280;10469;42.720;23.252;2023-03-20T02:47:36;95154.53;;;4.54;100.00
20620;BME280;10469;42.720;23.252;2023-03-20T02:52:55;95144.75;;;4.12;100.00
20620;BME280;10469;42.720;23.252;2023-03-20T02:55:42;95169.19;;;4.50;100.00
20620;BME280;10469;42.720;23.252;2023-03-20T02:58:24;95135.66;;;4.49;100.00
20620;BME280;10469;42.720;23.252;2023-03-20T03:03:43;95159.09;;;4.39;100.00
20620;BME280;10469;42.720;23.252;2023-03-20T03:08:46;95156.66;;;4.44;100.00
20620;BME280;10469;42.720;23.252;2023-03-20T03:11:13;95160.56;;;4.41;100.00
20620;BME280;10469;42.720;23.252;2023-03-20T03:13:43;95145.34;;;4.57;100.00
20620;BME280;10469;42.720;23.252;2023-03-20T03:16:14;95157.22;;;4.61;100.00
20620;BME280;10469;42.720;23.252;2023-03-20T03:18:42;95157.03;;;4.62;100.00
20620;BME280;10469;42.720;23.252;2023-03-20T03:21:10;95157.66;;;4.64;100.00
20620;BME280;10469;42.720;23.252;2023-03-20T03:23:44;95140.22;;;4.55;100.00
20620;BME280;10469;42.720;23.252;2023-03-20T03:26:23;95153.22;;;4.71;100.00
20620;BME280;10469;42.720;23.252;2023-03-20T03:28:54;95155.16;;;4.56;100.00
20620;BME280;10469;42.720;23.252;2023-03-20T03:31:21;95149.06;;;4.62;100.00
20620;BME280;10469;42.720;23.252;2023-03-20T03:33:51;95155.72;;;4.51;100.00
20620;BME280;10469;42.720;23.252;2023-03-20T03:44:55;95153.13;;;4.58;100.00
20620;BME280;10469;42.720;23.252;2023-03-20T03:47:52;95156.97;;;4.27;100.00
20620;BME280;10469;42.720;23.252;2023-03-20T03:50:27;95151.69;;;4.34;100.00
20620;BME280;10469;42.720;23.252;2023-03-20T03:52:55;95153.78;;;4.39;100.00
20620;BME280;10469;42.720;23.252;2023-03-20T03:55:25;95113.06;;;4.32;100.00
20620;BME280;10469;42.720;23.252;2023-03-20T03:58:05;95113.94;;;4.11;100.00
20620;BME280;10469;42.720;23.252;2023-03-20T04:00:33;95129.72;;;3.97;100.00
20620;BME280;10469;42.720;23.252;2023-03-20T04:03:00;95132.50;;;3.89;100.00
20620;BME280;10469;42.720;23.252;2023-03-20T04:05:29;95154.16;;;4.14;100.00
20620;BME280;10469;42.720;23.252;2023-03-20T04:07:58;95142.84;;;4.27;100.00
20620;BME280;10469;42.720;23.252;2023-03-20T04:10:25;95129.03;;;4.10;100.00
20620;BME280;10469;42.720;23.252;2023-03-20T04:12:51;95126.31;;;4.03;100.00
20620;BME280;10469;42.720;23.252;2023-03-20T04:15:17;95121.69;;;4.12;100.00
20620;BME280;10469;42.720;23.252;2023-03-20T04:17:44;95107.09;;;4.01;100.00
20620;BME280;10469;42.720;23.252;2023-03-20T04:20:11;95115.56;;;4.12;100.00
20620;BME280;10469;42.720;23.252;2023-03-20T04:22:37;95114.22;;;4.01;100.00
20620;BME280;10469;42.720;23.252;2023-03-20T04:25:04;95107.38;;;4.07;100.00
20620;BME280;10469;42.720;23.252;2023-03-20T04:27:30;95126.88;;;3.99;100.00
20620;BME280;10469;42.720;23.252;2023-03-20T04:29:55;95115.44;;;3.98;100.00
20620;BME280;10469;42.720;23.252;2023-03-20T04:32:22;95136.22;;;3.95;100.00
20620;BME280;10469;42.720;23.252;2023-03-20T04:34:47;95145.81;;;3.74;100.00
20620;BME280;10469;42.720;23.252;2023-03-20T04:37:13;95137.88;;;3.96;100.00
20620;BME280;10469;42.720;23.252;2023-03-20T04:39:39;95144.06;;;4.03;100.00
20620;BME280;10469;42.720;23.252;2023-03-20T04:42:06;95155.00;;;3.57;100.00
20620;BME280;10469;42.720;23.252;2023-03-20T04:44:32;95161.50;;;4.12;100.00
20620;BME280;10469;42.720;23.252;2023-03-20T04:46:58;95162.19;;;4.42;100.00
20620;BME280;10469;42.720;23.252;2023-03-20T04:49:23;95138.88;;;4.38;100.00
20620;BME280;10469;42.720;23.252;2023-03-20T04:51:49;95167.19;;;4.80;100.00
20620;BME280;10469;42.720;23.252;2023-03-20T04:54:15;95166.25;;;4.94;100.00
20620;BME280;10469;42.720;23.252;2023-03-20T04:56:40;95154.91;;;5.48;100.00
20620;BME280;10469;42.720;23.252;2023-03-20T04:59:06;95171.13;;;6.28;100.00
20620;BME280;10469;42.720;23.252;2023-03-20T05:01:31;95161.69;;;6.25;100.00
20620;BME280;10469;42.720;23.252;2023-03-20T05:03:57;95156.41;;;6.92;100.00
20620;BME280;10469;42.720;23.252;2023-03-20T05:06:29;95169.13;;;6.63;100.00
20620;BME280;10469;42.720;23.252;2023-03-20T05:08:56;95166.00;;;6.13;100.00
20620;BME280;10469;42.720;23.252;2023-03-20T05:11:24;95179.91;;;5.61;100.00
20620;BME280;10469;42.720;23.252;2023-03-20T05:13:49;95166.84;;;5.72;100.00
20620;BME280;10469;42.720;23.252;2023-03-20T05:16:15;95165.97;;;5.17;100.00
20620;BME280;10469;42.720;23.252;2023-03-20T05:18:40;95182.59;;;6.28;100.00
20620;BME280;10469;42.720;23.252;2023-03-20T05:21:06;95169.50;;;6.93;100.00
20620;BME280;10469;42.720;23.252;2023-03-20T05:23:32;95164.88;;;7.47;100.00
20620;BME280;10469;42.720;23.252;2023-03-20T05:25:58;95183.97;;;7.50;100.00
20620;BME280;10469;42.720;23.252;2023-03-20T05:28:23;95172.66;;;8.07;100.00
20620;BME280;10469;42.720;23.252;2023-03-20T05:30:49;95184.69;;;7.06;100.00
20620;BME280;10469;42.720;23.252;2023-03-20T05:33:15;95148.75;;;7.87;100.00
20620;BME280;10469;42.720;23.252;2023-03-20T05:35:41;95173.53;;;8.39;100.00
20620;BME280;10469;42.720;23.252;2023-03-20T05:38:06;95144.47;;;8.49;100.00
20620;BME280;10469;42.720;23.252;2023-03-20T05:40:32;95172.69;;;8.70;100.00
20620;BME280;10469;42.720;23.252;2023-03-20T05:42:57;95164.38;;;8.15;100.00
20620;BME280;10469;42.720;23.252;2023-03-20T05:45:23;95172.47;;;9.58;100.00
20620;BME280;10469;42.720;23.252;2023-03-20T05:47:49;95171.53;;;8.59;100.00
20620;BME280;10469;42.720;23.252;2023-03-20T05:50:15;95168.53;;;8.49;100.00
20620;BME280;10469;42.720;23.252;2023-03-20T05:52:40;95180.22;;;8.79;100.00
20620;BME280;10469;42.720;23.252;2023-03-20T05:55:06;95162.94;;;8.57;100.00
20620;BME280;10469;42.720;23.252;2023-03-20T05:57:32;95177.59;;;8.48;100.00
20620;BME280;10469;42.720;23.252;2023-03-20T05:59:58;95168.78;;;8.72;100.00
20620;BME280;10469;42.720;23.252;2023-03-20T06:02:23;95172.19;;;9.48;100.00
20620;BME280;10469;42.720;23.252;2023-03-20T06:04:49;95162.94;;;9.99;100.00
20620;BME280;10469;42.720;23.252;2023-03-20T06:07:14;95165.13;;;10.80;100.00
20620;BME280;10469;42.720;23.252;2023-03-20T06:09:40;95173.09;;;9.60;100.00
20620;BME280;10469;42.720;23.252;2023-03-20T06:12:06;95177.94;;;10.78;100.00
20620;BME280;10469;42.720;23.252;2023-03-20T06:14:32;95171.25;;;10.27;100.00
20620;BME280;10469;42.720;23.252;2023-03-20T06:16:57;95170.00;;;10.84;100.00
20620;BME280;10469;42.720;23.252;2023-03-20T06:19:23;95161.47;;;11.80;100.00
20620;BME280;10469;42.720;23.252;2023-03-20T06:21:49;95164.53;;;10.67;100.00
20620;BME280;10469;42.720;23.252;2023-03-20T06:24:15;95159.81;;;11.27;97.02
20620;BME280;10469;42.720;23.252;2023-03-20T06:26:41;95151.16;;;11.49;97.24
20620;BME280;10469;42.720;23.252;2023-03-20T06:29:07;95134.28;;;11.65;95.67
20620;BME280;10469;42.720;23.252;2023-03-20T06:31:32;95172.78;;;13.64;90.14
20620;BME280;10469;42.720;23.252;2023-03-20T06:33:58;95166.44;;;11.13;93.57
20620;BME280;10469;42.720;23.252;2023-03-20T06:36:23;95174.63;;;12.46;92.88
20620;BME280;10469;42.720;23.252;2023-03-20T06:38:49;95173.25;;;12.60;88.70
20620;BME280;10469;42.720;23.252;2023-03-20T06:41:15;95180.66;;;12.24;90.21
20620;BME280;10469;42.720;23.252;2023-03-20T06:43:41;95156.28;;;12.14;89.87
20620;BME280;10469;42.720;23.252;2023-03-20T06:46:07;95171.13;;;13.41;87.35
20620;BME280;10469;42.720;23.252;2023-03-20T06:48:33;95147.72;;;15.48;83.04
20620;BME280;10469;42.720;23.252;2023-03-20T06:50:58;95139.59;;;16.68;76.76
20620;BME280;10469;42.720;23.252;2023-03-20T06:53:24;95160.09;;;14.47;77.05
20620;BME280;10469;42.720;23.252;2023-03-20T06:55:51;95151.97;;;15.34;75.11
20620;BME280;10469;42.720;23.252;2023-03-20T06:58:17;95161.63;;;14.65;74.73
20620;BME280;10469;42.720;23.252;2023-03-20T07:00:44;95165.00;;;13.29;77.73
20620;BME280;10469;42.720;23.252;2023-03-20T07:03:11;95154.84;;;13.70;78.87
20620;BME280;10469;42.720;23.252;2023-03-20T07:05:37;95163.59;;;12.76;83.04
20620;BME280;10469;42.720;23.252;2023-03-20T07:08:03;95160.69;;;13.28;81.89
20620;BME280;10469;42.720;23.252;2023-03-20T07:10:29;95160.00;;;13.21;82.70
20620;BME280;10469;42.720;23.252;2023-03-20T07:12:56;95145.81;;;15.80;74.99
20620;BME280;10469;42.720;23.252;2023-03-20T07:15:21;95143.69;;;15.93;74.12
20620;BME280;10469;42.720;23.252;2023-03-20T07:17:47;95135.66;;;16.13;68.63
20620;BME280;10469;42.720;23.252;2023-03-20T07:20:13;95137.19;;;15.46;68.35
20620;BME280;10469;42.720;23.252;2023-03-20T07:22:39;95132.75;;;14.66;70.96
20620;BME280;10469;42.720;23.252;2023-03-20T07:25:07;95139.94;;;15.56;68.05
20620;BME280;10469;42.720;23.252;2023-03-20T07:27:33;95155.53;;;14.04;72.18
20620;BME280;10469;42.720;23.252;2023-03-20T07:29:59;95141.91;;;12.66;80.63
20620;BME280;10469;42.720;23.252;2023-03-20T07:32:25;95152.56;;;13.62;81.02
20620;BME280;10469;42.720;23.252;2023-03-20T07:34:51;95159.09;;;14.10;77.15
20620;BME280;10469;42.720;23.252;2023-03-20T07:37:17;95125.78;;;14.43;74.43
20620;BME280;10469;42.720;23.252;2023-03-20T07:39:43;95156.88;;;14.28;75.47
20620;BME280;10469;42.720;23.252;2023-03-20T07:42:08;95143.97;;;15.96;72.24
20620;BME280;10469;42.720;23.252;2023-03-20T07:44:34;95150.25;;;16.12;64.43
20620;BME280;10469;42.720;23.252;2023-03-20T07:47:00;95135.78;;;15.81;68.50
20620;BME280;10469;42.720;23.252;2023-03-20T07:49:25;95149.94;;;17.48;62.17
20620;BME280;10469;42.720;23.252;2023-03-20T07:51:51;95131.53;;;16.89;63.42
20620;BME280;10469;42.720;23.252;2023-03-20T07:54:19;95147.16;;;16.56;64.98
20620;BME280;10469;42.720;23.252;2023-03-20T07:56:45;95144.03;;;16.07;64.18
20620;BME280;10469;42.720;23.252;2023-03-20T07:59:11;95132.34;;;17.20;62.09
20620;BME280;10469;42.720;23.252;2023-03-20T08:01:37;95146.97;;;17.29;61.74
20620;BME280;10469;42.720;23.252;2023-03-20T08:04:04;95117.47;;;17.02;62.37
20620;BME280;10469;42.720;23.252;2023-03-20T08:06:31;95129.47;;;18.12;59.50
20620;BME280;10469;42.720;23.252;2023-03-20T08:08:56;95104.63;;;19.22;54.66
20620;BME280;10469;42.720;23.252;2023-03-20T08:11:22;95144.16;;;18.60;52.81
20620;BME280;10469;42.720;23.252;2023-03-20T08:13:47;95111.69;;;17.60;54.95
20620;BME280;10469;42.720;23.252;2023-03-20T08:16:13;95144.84;;;18.37;57.25
20620;BME280;10469;42.720;23.252;2023-03-20T08:18:39;95109.97;;;19.91;53.01
20620;BME280;10469;42.720;23.252;2023-03-20T08:21:04;95113.88;;;17.63;55.88
20620;BME280;10469;42.720;23.252;2023-03-20T08:23:30;95139.75;;;20.25;50.50
20620;BME280;10469;42.720;23.252;2023-03-20T08:25:56;95115.88;;;20.65;47.30
20620;BME280;10469;42.720;23.252;2023-03-20T08:28:22;95108.53;;;20.41;48.79
20620;BME280;10469;42.720;23.252;2023-03-20T08:30:48;95132.59;;;15.89;58.47
20620;BME280;10469;42.720;23.252;2023-03-20T08:33:18;95136.13;;;17.14;57.29
20620;BME280;10469;42.720;23.252;2023-03-20T08:35:53;95120.34;;;18.47;54.49
20620;BME280;10469;42.720;23.252;2023-03-20T08:38:20;95134.84;;;18.22;53.32
20620;BME280;10469;42.720;23.252;2023-03-20T08:40:45;95145.47;;;18.73;52.45
20620;BME280;10469;42.720;23.252;2023-03-20T08:43:11;95139.91;;;19.91;50.46
20620;BME280;10469;42.720;23.252;2023-03-20T08:45:37;95141.56;;;18.89;50.73
20620;BME280;10469;42.720;23.252;2023-03-20T08:48:03;95119.06;;;18.29;54.18
20620;BME280;10469;42.720;23.252;2023-03-20T08:50:29;95137.00;;;19.19;51.65
20620;BME280;10469;42.720;23.252;2023-03-20T08:52:55;95133.03;;;18.62;52.02
20620;BME280;10469;42.720;23.252;2023-03-20T08:55:20;95130.84;;;21.19;46.32
20620;BME280;10469;42.720;23.252;2023-03-20T08:57:46;95125.16;;;20.83;47.23
20620;BME280;10469;42.720;23.252;2023-03-20T09:00:13;95134.16;;;20.16;47.72
20620;BME280;10469;42.720;23.252;2023-03-20T09:02:40;95112.31;;;21.02;45.79
20620;BME280;10469;42.720;23.252;2023-03-20T09:05:06;95109.41;;;22.60;40.45
20620;BME280;10469;42.720;23.252;2023-03-20T09:07:32;95120.81;;;21.66;41.11
20620;BME280;10469;42.720;23.252;2023-03-20T09:09:57;95124.13;;;22.87;39.82
20620;BME280;10469;42.720;23.252;2023-03-20T09:12:23;95115.50;;;23.07;39.65
20620;BME280;10469;42.720;23.252;2023-03-20T09:14:48;95102.25;;;21.35;41.98
20620;BME280;10469;42.720;23.252;2023-03-20T09:17:14;95098.94;;;21.19;42.53
20620;BME280;10469;42.720;23.252;2023-03-20T09:19:40;95102.88;;;20.14;43.98
20620;BME280;10469;42.720;23.252;2023-03-20T09:22:08;95095.72;;;21.50;41.65
20620;BME280;10469;42.720;23.252;2023-03-20T09:24:34;95103.47;;;22.03;41.80
20620;BME280;10469;42.720;23.252;2023-03-20T09:26:59;95080.72;;;24.23;38.54
20620;BME280;10469;42.720;23.252;2023-03-20T09:29:26;95085.00;;;26.54;32.37
20620;BME280;10469;42.720;23.252;2023-03-20T09:31:55;95066.06;;;23.03;35.32
20620;BME280;10469;42.720;23.252;2023-03-20T09:34:21;95077.41;;;23.64;36.87
20620;BME280;10469;42.720;23.252;2023-03-20T09:36:46;95076.97;;;27.98;31.05
20620;BME280;10469;42.720;23.252;2023-03-20T09:39:12;95071.94;;;26.92;30.20
20620;BME280;10469;42.720;23.252;2023-03-20T09:41:38;95076.59;;;23.10;35.10
20620;BME280;10469;42.720;23.252;2023-03-20T09:44:17;95057.78;;;24.02;34.37
20620;BME280;10469;42.720;23.252;2023-03-20T09:52:41;95031.53;;;27.26;30.22
20620;BME280;10469;42.720;23.252;2023-03-20T09:55:14;95036.56;;;28.03;29.52
20620;BME280;10469;42.720;23.252;2023-03-20T09:57:49;95031.78;;;25.90;31.07
20620;BME280;10469;42.720;23.252;2023-03-20T10:00:18;95030.50;;;23.57;33.47
20620;BME280;10469;42.720;23.252;2023-03-20T10:03:00;95029.59;;;24.10;33.46
20620;BME280;10469;42.720;23.252;2023-03-20T10:05:42;95026.63;;;23.27;33.55
20620;BME280;10469;42.720;23.252;2023-03-20T10:08:13;95013.63;;;25.51;32.23
20620;BME280;10469;42.720;23.252;2023-03-20T10:10:53;95004.72;;;23.89;33.48
20620;BME280;10469;42.720;23.252;2023-03-20T10:18:32;94981.22;;;27.38;29.38
20620;BME280;10469;42.720;23.252;2023-03-20T10:21:00;95010.25;;;26.01;29.41
20620;BME280;10469;42.720;23.252;2023-03-20T10:26:20;94978.91;;;26.23;30.45
20620;BME280;10469;42.720;23.252;2023-03-20T10:28:57;94980.06;;;29.02;27.77
20620;BME280;10469;42.720;23.252;2023-03-20T10:34:22;94979.06;;;25.97;31.25
20620;BME280;10469;42.720;23.252;2023-03-20T10:40:18;94973.47;;;29.62;25.89
20620;BME280;10469;42.720;23.252;2023-03-20T10:42:46;94959.19;;;29.60;26.19
20620;BME280;10469;42.720;23.252;2023-03-20T10:47:55;94954.72;;;30.19;24.44
20620;BME280;10469;42.720;23.252;2023-03-20T10:50:33;94955.34;;;27.18;27.51
20620;BME280;10469;42.720;23.252;2023-03-20T10:53:01;94946.28;;;27.17;27.78
20620;BME280;10469;42.720;23.252;2023-03-20T10:55:33;94954.16;;;25.64;28.45
20620;BME280;10469;42.720;23.252;2023-03-20T10:58:22;94952.25;;;25.17;29.77
20620;BME280;10469;42.720;23.252;2023-03-20T11:00:49;94944.59;;;26.08;28.47
20620;BME280;10469;42.720;23.252;2023-03-20T11:03:24;94938.88;;;24.81;29.83
20620;BME280;10469;42.720;23.252;2023-03-20T11:06:17;94928.34;;;27.11;28.70
20620;BME280;10469;42.720;23.252;2023-03-20T11:08:46;94934.28;;;29.44;26.06
20620;BME280;10469;42.720;23.252;2023-03-20T11:11:12;94920.41;;;28.04;25.93
20620;BME280;10469;42.720;23.252;2023-03-20T11:13:41;94904.88;;;26.60;27.73
20620;BME280;10469;42.720;23.252;2023-03-20T11:18:45;94911.41;;;27.09;27.08
20620;BME280;10469;42.720;23.252;2023-03-20T11:21:22;94911.00;;;27.56;27.18
20620;BME280;10469;42.720;23.252;2023-03-20T11:23:50;94904.09;;;27.50;27.18
20620;BME280;10469;42.720;23.252;2023-03-20T11:26:19;94891.97;;;24.57;30.45
20620;BME280;10469;42.720;23.252;2023-03-20T11:28:55;94894.44;;;26.53;27.93
20620;BME280;10469;42.720;23.252;2023-03-20T11:31:34;94900.47;;;24.90;29.77
20620;BME280;10469;42.720;23.252;2023-03-20T11:36:57;94884.72;;;23.91;30.96
20620;BME280;10469;42.720;23.252;2023-03-20T11:39:26;94883.19;;;23.59;31.05
20620;BME280;10469;42.720;23.252;2023-03-20T11:41:56;94889.88;;;23.93;31.10
20620;BME280;10469;42.720;23.252;2023-03-20T11:44:27;94878.75;;;24.67;29.75
20620;BME280;10469;42.720;23.252;2023-03-20T11:47:14;94863.47;;;26.02;28.41
20620;BME280;10469;42.720;23.252;2023-03-20T11:49:46;94858.44;;;25.83;28.65
20620;BME280;10469;42.720;23.252;2023-03-20T11:52:19;94846.44;;;26.30;28.04
20620;BME280;10469;42.720;23.252;2023-03-20T11:54:49;94830.09;;;27.85;26.03
20620;BME280;10469;42.720;23.252;2023-03-20T11:57:35;94843.53;;;28.15;25.97
20620;BME280;10469;42.720;23.252;2023-03-20T12:02:34;94835.59;;;27.36;26.69
20620;BME280;10469;42.720;23.252;2023-03-20T12:05:18;94830.28;;;25.86;27.67
20620;BME280;10469;42.720;23.252;2023-03-20T12:07:45;94825.56;;;26.83;27.23
20620;BME280;10469;42.720;23.252;2023-03-20T12:10:14;94819.97;;;26.58;26.09
20620;BME280;10469;42.720;23.252;2023-03-20T12:12:56;94816.44;;;27.40;25.51
20620;BME280;10469;42.720;23.252;2023-03-20T12:15:27;94817.13;;;27.37;25.34
20620;BME280;10469;42.720;23.252;2023-03-20T12:18:07;94814.56;;;27.93;25.53
20620;BME280;10469;42.720;23.252;2023-03-20T12:20:37;94816.47;;;26.70;26.00
20620;BME280;10469;42.720;23.252;2023-03-20T12:23:12;94821.50;;;25.13;27.53
20620;BME280;10469;42.720;23.252;2023-03-20T12:36:27;94803.88;;;22.79;29.88
20620;BME280;10469;42.720;23.252;2023-03-20T12:38:54;94783.25;;;22.34;29.64
20620;BME280;10469;42.720;23.252;2023-03-20T12:42:16;94795.59;;;23.50;28.87
20620;BME280;10469;42.720;23.252;2023-03-20T12:50:01;94790.81;;;22.99;29.08
20620;BME280;10469;42.720;23.252;2023-03-20T12:56:00;94775.84;;;21.67;30.38
20620;BME280;10469;42.720;23.252;2023-03-20T13:09:42;94765.13;;;22.38;27.69
20620;BME280;10469;42.720;23.252;2023-03-20T13:12:14;94767.38;;;22.44;27.72
20620;BME280;10469;42.720;23.252;2023-03-20T13:20:55;94745.41;;;22.18;28.76
20620;BME280;10469;42.720;23.252;2023-03-20T13:23:38;94725.50;;;21.95;28.29
20620;BME280;10469;42.720;23.252;2023-03-20T13:26:36;94737.94;;;22.10;28.51
20620;BME280;10469;42.720;23.252;2023-03-20T13:29:29;94736.81;;;22.34;28.88
20620;BME280;10469;42.720;23.252;2023-03-20T13:35:12;94728.47;;;22.08;28.56
20620;BME280;10469;42.720;23.252;2023-03-20T13:37:33;94712.16;;;21.71;29.14
20620;BME280;10469;42.720;23.252;2023-03-20T13:42:42;94710.78;;;21.24;27.75
20620;BME280;10469;42.720;23.252;2023-03-20T13:45:43;94722.50;;;21.83;29.21
20620;BME280;10469;42.720;23.252;2023-03-20T13:48:37;94714.25;;;22.19;28.14
20620;BME280;10469;42.720;23.252;2023-03-20T13:51:07;94709.53;;;21.89;28.05
20620;BME280;10469;42.720;23.252;2023-03-20T14:05:17;94705.59;;;22.26;27.81
20620;BME280;10469;42.720;23.252;2023-03-20T14:07:46;94700.25;;;22.52;27.78
20620;BME280;10469;42.720;23.252;2023-03-20T14:12:56;94671.94;;;22.48;26.30
20620;BME280;10469;42.720;23.252;2023-03-20T14:15:33;94674.56;;;22.22;26.76
20620;BME280;10469;42.720;23.252;2023-03-20T14:18:13;94679.84;;;22.18;26.75
20620;BME280;10469;42.720;23.252;2023-03-20T14:20:43;94679.31;;;22.39;26.84
20620;BME280;10469;42.720;23.252;2023-03-20T14:23:36;94676.50;;;22.21;27.01
20620;BME280;10469;42.720;23.252;2023-03-20T14:26:25;94672.72;;;22.09;27.05
20620;BME280;10469;42.720;23.252;2023-03-20T14:28:55;94679.38;;;22.56;27.02
20620;BME280;10469;42.720;23.252;2023-03-20T14:53:11;94670.31;;;20.81;28.26
20620;BME280;10469;42.720;23.252;2023-03-20T15:42:24;94646.91;;;21.16;28.65
20620;BME280;10469;42.720;23.252;2023-03-20T15:44:52;94629.44;;;21.17;29.19
20620;BME280;10469;42.720;23.252;2023-03-20T15:47:20;94626.06;;;20.98;28.50
20620;BME280;10469;42.720;23.252;2023-03-20T15:49:53;94657.56;;;21.04;27.91
20620;BME280;10469;42.720;23.252;2023-03-20T15:52:38;94658.16;;;21.01;28.18
20620;BME280;10469;42.720;23.252;2023-03-20T15:55:13;94654.31;;;21.02;28.06
20620;BME280;10469;42.720;23.252;2023-03-20T15:57:41;94655.75;;;20.99;27.85
20620;BME280;10469;42.720;23.252;2023-03-20T16:00:18;94638.16;;;20.69;28.10
20620;BME280;10469;42.720;23.252;2023-03-20T16:02:45;94660.97;;;20.73;28.12
20620;BME280;10469;42.720;23.252;2023-03-20T16:05:13;94647.28;;;20.51;28.10
20620;BME280;10469;42.720;23.252;2023-03-20T16:07:39;94658.25;;;20.18;28.10
20620;BME280;10469;42.720;23.252;2023-03-20T16:10:32;94672.22;;;19.98;28.44
20620;BME280;10469;42.720;23.252;2023-03-20T16:13:00;94670.41;;;19.93;28.62
20620;BME280;10469;42.720;23.252;2023-03-20T16:15:28;94676.31;;;19.82;29.37
20620;BME280;10469;42.720;23.252;2023-03-20T16:18:00;94673.59;;;19.82;29.21
20620;BME280;10469;42.720;23.252;2023-03-20T16:20:32;94677.63;;;19.70;29.25
20620;BME280;10469;42.720;23.252;2023-03-20T16:23:04;94678.63;;;19.61;29.66